Time;durP1;ratioP1;P1;durP2;ratioP2;P2;SDS_P1;SDS_P2;PMS_P1;PMS_P2;Temp;Humidity;BMP_temperature;BMP_pressure;BME280_temperature;BME280_humidity;BME280_pressure;Samples;Min_cycle;Max_cycle;Signal;HPM_P1;HPM_P2
2023/08/08 00:00:19;;;;;;;1.08;0.90;;;;;;;10.23;100.00;96122.06;1022598;28;20035;-71
2023/08/08 00:00:49;;;;;;;0.98;0.88;;;;;;;10.20;100.00;96124.38;1026812;28;20011;-74
2023/08/08 00:01:20;;;;;;;2.35;1.10;;;;;;;10.18;100.00;96123.84;1027277;28;20038;-73
2023/08/08 00:01:50;;;;;;;1.58;1.05;;;;;;;10.19;100.00;96126.19;1031044;28;20092;-73
2023/08/08 00:02:21;;;;;;;1.80;1.10;;;;;;;10.19;100.00;96126.19;1030735;28;20026;-73
2023/08/08 00:02:51;;;;;;;1.73;1.10;;;;;;;10.18;100.00;96124.63;1026919;28;20035;-73
2023/08/08 00:03:22;;;;;;;3.95;1.10;;;;;;;10.18;100.00;96126.47;1027045;28;20038;-73
2023/08/08 00:03:52;;;;;;;2.67;0.95;;;;;;;10.13;100.00;96119.34;1022726;28;20433;-73
2023/08/08 00:04:22;;;;;;;4.68;1.00;;;;;;;10.16;100.00;96126.72;1026883;28;20030;-74
2023/08/08 00:04:53;;;;;;;1.48;1.00;;;;;;;10.12;100.00;96121.16;1030964;28;20508;-73
2023/08/08 00:05:23;;;;;;;1.92;0.85;;;;;;;10.14;100.00;96118.31;1026949;28;20034;-74
2023/08/08 00:05:54;;;;;;;1.83;1.15;;;;;;;10.04;100.00;96111.13;1035069;28;20120;-72
2023/08/08 00:06:24;;;;;;;2.15;1.23;;;;;;;10.03;100.00;96114.81;1034793;28;20052;-73
2023/08/08 00:06:55;;;;;;;2.13;0.90;;;;;;;10.09;100.00;96123.50;1035050;28;20038;-74
2023/08/08 00:07:26;;;;;;;1.67;1.00;;;;;;;10.09;100.00;96126.94;1032161;28;20038;-74
2023/08/08 00:07:56;;;;;;;1.60;1.20;;;;;;;10.07;100.00;96123.75;1027029;28;20031;-74
2023/08/08 00:08:26;;;;;;;0.95;0.80;;;;;;;10.08;100.00;96125.31;1026926;28;20030;-73
2023/08/08 00:08:57;;;;;;;1.05;0.95;;;;;;;10.07;100.00;96118.50;1030793;28;20038;-74
2023/08/08 00:09:27;;;;;;;2.40;0.77;;;;;;;10.00;100.00;96106.66;1032382;28;20030;-73
2023/08/08 00:09:58;;;;;;;2.88;1.15;;;;;;;10.01;100.00;96102.97;1039123;28;20036;-73
2023/08/08 00:10:28;;;;;;;1.77;1.10;;;;;;;10.07;100.00;96117.72;1034264;28;20045;-73
2023/08/08 00:10:59;;;;;;;1.20;1.02;;;;;;;10.00;100.00;96111.91;1030009;28;20030;-74
2023/08/08 00:11:30;;;;;;;3.45;0.90;;;;;;;10.01;100.00;96108.22;1026607;28;20622;-74
2023/08/08 00:12:00;;;;;;;1.40;0.80;;;;;;;10.02;100.00;96115.81;1022978;29;20031;-73
2023/08/08 00:12:31;;;;;;;2.45;1.10;;;;;;;10.07;100.00;96121.13;1026827;28;20026;-75
2023/08/08 00:13:01;;;;;;;2.55;0.88;;;;;;;10.04;100.00;96108.50;1030931;28;20030;-72
2023/08/08 00:13:31;;;;;;;0.70;0.70;;;;;;;10.09;100.00;96115.63;1030926;28;20048;-72
2023/08/08 00:14:02;;;;;;;1.10;0.90;;;;;;;10.00;100.00;96107.44;1030996;28;20030;-73
2023/08/08 00:14:32;;;;;;;2.20;1.65;;;;;;;10.07;100.00;96118.50;1029419;28;20035;-73
2023/08/08 00:15:03;;;;;;;2.22;1.15;;;;;;;10.00;100.00;96112.69;1022754;28;20042;-72
2023/08/08 00:15:34;;;;;;;1.40;0.95;;;;;;;10.05;100.00;96114.53;1022988;28;20493;-73
2023/08/08 00:16:04;;;;;;;1.23;0.93;;;;;;;10.06;100.00;96116.94;1022889;28;20477;-72
2023/08/08 00:16:35;;;;;;;1.25;0.88;;;;;;;10.02;100.00;96109.78;1022922;29;20381;-73
2023/08/08 00:17:05;;;;;;;0.93;0.68;;;;;;;10.02;100.00;96110.59;1022997;28;20458;-73
2023/08/08 00:17:36;;;;;;;1.20;0.98;;;;;;;10.02;100.00;96113.19;1030946;28;20030;-73
2023/08/08 00:18:06;;;;;;;1.63;1.10;;;;;;;10.01;100.00;96114.25;1030613;28;20081;-72
2023/08/08 00:18:37;;;;;;;1.50;0.98;;;;;;;10.00;100.00;96111.91;1030979;28;20523;-72
2023/08/08 00:19:07;;;;;;;2.25;1.17;;;;;;;9.99;100.00;96111.06;1026748;28;20062;-72
2023/08/08 00:19:38;;;;;;;1.88;1.00;;;;;;;9.99;100.00;96116.31;1029655;28;20045;-73
2023/08/08 00:20:09;;;;;;;1.38;0.82;;;;;;;9.93;100.00;96106.84;1030845;28;20480;-73
2023/08/08 00:20:40;;;;;;;1.92;0.85;;;;;;;10.00;100.00;96112.69;1026489;28;20034;-72
2023/08/08 00:21:10;;;;;;;2.17;1.00;;;;;;;10.00;100.00;96114.53;1030729;28;20269;-74
2023/08/08 00:21:40;;;;;;;1.08;0.90;;;;;;;9.99;100.00;96111.06;1026844;28;20529;-73
2023/08/08 00:22:11;;;;;;;1.27;0.98;;;;;;;10.00;100.00;96114.53;1026796;28;20023;-74
2023/08/08 00:22:41;;;;;;;1.42;1.00;;;;;;;9.99;100.00;96116.31;1030963;28;20019;-74
2023/08/08 00:23:12;;;;;;;2.20;1.00;;;;;;;9.98;100.00;96120.00;1026564;28;20030;-74
2023/08/08 00:23:42;;;;;;;1.77;1.10;;;;;;;9.98;100.00;96125.22;1026921;28;20034;-73
2023/08/08 00:24:13;;;;;;;5.18;1.20;;;;;;;9.96;100.00;96118.66;1026908;28;20511;-72
2023/08/08 00:24:43;;;;;;;0.82;0.82;;;;;;;9.94;100.00;96121.53;1027872;28;20015;-72
2023/08/08 00:25:14;;;;;;;0.73;0.65;;;;;;;9.94;100.00;96120.75;1028968;28;20026;-72
2023/08/08 00:25:49;;;;;;;1.95;1.02;;;;;;;9.92;100.00;96120.97;1030880;28;20484;-73
2023/08/08 00:26:20;;;;;;;0.88;0.75;;;;;;;9.86;100.00;96108.91;1034876;28;20018;-73
2023/08/08 00:26:50;;;;;;;0.80;0.80;;;;;;;9.92;100.00;96120.97;1034878;28;20261;-74
2023/08/08 00:27:20;;;;;;;3.10;0.98;;;;;;;9.94;100.00;96124.16;1030742;28;20066;-74
2023/08/08 00:27:51;;;;;;;2.15;1.10;;;;;;;9.86;100.00;96112.31;1030867;28;20591;-73
2023/08/08 00:28:21;;;;;;;1.73;1.20;;;;;;;9.92;100.00;96120.97;1033804;28;20072;-74
2023/08/08 00:28:52;;;;;;;1.05;0.93;;;;;;;9.54;100.00;96056.44;1035095;28;20075;-75
2023/08/08 00:29:22;;;;;;;3.35;1.33;;;;;;;9.88;100.00;96114.66;1038966;28;20029;-74
2023/08/08 00:29:54;;;;;;;2.00;1.27;;;;;;;9.91;100.00;96114.16;1034963;28;20424;-72
2023/08/08 00:30:25;;;;;;;1.20;0.90;;;;;;;9.91;100.00;96120.19;1034426;28;20064;-72
2023/08/08 00:30:55;;;;;;;2.55;0.98;;;;;;;9.90;100.00;96118.63;1034830;28;20319;-73
2023/08/08 00:31:26;;;;;;;1.73;1.00;;;;;;;9.87;100.00;96113.88;1034920;28;20029;-73
2023/08/08 00:31:56;;;;;;;3.33;1.20;;;;;;;9.86;100.00;96112.31;1030904;28;20097;-73
2023/08/08 00:32:26;;;;;;;2.08;0.98;;;;;;;9.81;100.00;96101.75;1030942;28;20019;-74
2023/08/08 00:32:57;;;;;;;2.05;1.08;;;;;;;9.87;100.00;96119.13;1026967;28;20098;-74
2023/08/08 00:33:28;;;;;;;2.95;0.82;;;;;;;9.88;100.00;96117.28;1026769;28;20019;-73
2023/08/08 00:33:58;;;;;;;0.98;0.95;;;;;;;9.84;100.00;96114.38;1030859;28;20026;-74
2023/08/08 00:34:29;;;;;;;1.52;1.02;;;;;;;9.76;100.00;96108.78;1030909;28;20061;-72
2023/08/08 00:34:59;;;;;;;1.88;0.90;;;;;;;9.82;100.00;96118.28;1033136;28;20431;-72
2023/08/08 00:35:29;;;;;;;2.13;1.27;;;;;;;9.81;100.00;96121.94;1026772;28;20129;-74
2023/08/08 00:36:00;;;;;;;2.95;0.80;;;;;;;9.78;100.00;96114.56;1027039;28;20027;-73
2023/08/08 00:36:30;;;;;;;1.35;1.00;;;;;;;9.79;100.00;96116.13;1014944;29;20043;-72
2023/08/08 00:37:01;;;;;;;1.38;1.20;;;;;;;9.77;100.00;96113.00;1015075;29;20028;-74
2023/08/08 00:37:31;;;;;;;1.60;1.10;;;;;;;9.68;100.00;96100.31;1015023;29;20083;-74
2023/08/08 00:38:02;;;;;;;2.30;0.88;;;;;;;9.72;100.00;96105.06;1022885;28;20042;-73
2023/08/08 00:38:32;;;;;;;1.48;0.90;;;;;;;9.62;100.00;96093.47;1022796;28;20655;-73
2023/08/08 00:39:03;;;;;;;0.85;0.82;;;;;;;9.70;100.00;96102.72;1022903;29;20042;-72
2023/08/08 00:39:33;;;;;;;0.90;0.90;;;;;;;9.79;100.00;96116.97;1022917;29;20050;-73
2023/08/08 00:40:04;;;;;;;1.90;1.02;;;;;;;9.78;100.00;96117.97;1022905;28;20461;-72
2023/08/08 00:40:34;;;;;;;1.40;1.00;;;;;;;9.70;100.00;96096.69;1034366;28;20030;-73
2023/08/08 00:41:05;;;;;;;1.90;0.93;;;;;;;9.79;100.00;96118.75;1034777;28;20026;-73
2023/08/08 00:41:35;;;;;;;1.05;0.90;;;;;;;9.71;100.00;96103.50;1034958;28;20510;-72
2023/08/08 00:42:06;;;;;;;1.30;1.20;;;;;;;9.72;100.00;96105.06;1030641;28;20495;-74
2023/08/08 00:42:36;;;;;;;1.45;1.10;;;;;;;9.79;100.00;96118.75;1026946;28;20087;-73
2023/08/08 00:43:07;;;;;;;1.45;0.90;;;;;;;9.74;100.00;96110.88;1026820;28;20068;-72
2023/08/08 00:43:37;;;;;;;1.77;1.00;;;;;;;9.76;100.00;96114.00;1023037;28;20039;-74
2023/08/08 00:44:08;;;;;;;1.10;1.00;;;;;;;9.75;100.00;96112.44;1030760;28;20042;-73
2023/08/08 00:44:40;;;;;;;2.67;1.13;;;;;;;9.70;100.00;96113.19;1034925;28;20092;-73
2023/08/08 00:45:10;;;;;;;1.27;1.08;;;;;;;9.56;100.00;96088.44;1022847;28;20674;-72
2023/08/08 00:45:42;;;;;;;6.82;1.52;;;;;;;9.67;100.00;96108.44;1027256;28;20281;-73
2023/08/08 00:46:12;;;;;;;1.88;1.00;;;;;;;9.70;100.00;96115.81;1030593;28;20049;-74
2023/08/08 00:46:43;;;;;;;4.45;1.10;;;;;;;9.71;100.00;96113.97;1026760;28;20278;-73
2023/08/08 00:47:13;;;;;;;1.20;0.90;;;;;;;9.70;100.00;96113.19;1026922;28;20037;-75
2023/08/08 00:47:44;;;;;;;3.65;1.10;;;;;;;9.62;100.00;96105.75;1022910;28;20489;-72
2023/08/08 00:48:14;;;;;;;1.70;1.00;;;;;;;9.71;100.00;96116.59;1026881;28;20026;-72
2023/08/08 00:48:45;;;;;;;1.20;1.10;;;;;;;9.68;100.00;96115.25;1034701;28;20052;-73
2023/08/08 00:49:15;;;;;;;2.72;1.23;;;;;;;9.65;100.00;96113.91;1030773;28;20057;-72
2023/08/08 00:49:48;;;;;;;1.40;1.00;;;;;;;9.62;100.00;96111.81;1026835;28;20031;-74
2023/08/08 00:50:18;;;;;;;1.08;0.90;;;;;;;9.62;100.00;96114.44;1027812;28;20640;-71
2023/08/08 00:50:49;;;;;;;2.53;1.00;;;;;;;9.64;100.00;96114.97;1030995;28;20258;-72
2023/08/08 00:51:20;;;;;;;1.40;1.30;;;;;;;9.66;100.00;96114.72;1023297;28;20027;-73
2023/08/08 00:51:50;;;;;;;1.85;1.10;;;;;;;9.66;100.00;96115.50;1027224;28;20023;-74
2023/08/08 00:52:20;;;;;;;2.17;1.33;;;;;;;9.65;100.00;96116.53;1026830;28;20042;-73
2023/08/08 00:52:51;;;;;;;1.60;1.20;;;;;;;9.65;100.00;96119.16;1022847;29;20031;-72
2023/08/08 00:53:23;;;;;;;1.55;1.13;;;;;;;9.58;100.00;96105.47;1018816;29;20055;-72
2023/08/08 00:53:54;;;;;;;2.30;1.50;;;;;;;9.60;100.00;96113.88;1030716;28;20554;-72
2023/08/08 00:54:24;;;;;;;1.55;1.02;;;;;;;9.59;100.00;96116.72;1022577;29;20275;-71
2023/08/08 00:54:55;;;;;;;1.45;0.90;;;;;;;9.60;100.00;96121.72;1026809;28;20274;-72
2023/08/08 00:55:25;;;;;;;1.70;1.10;;;;;;;9.56;100.00;96101.53;1018868;29;20054;-73
2023/08/08 00:55:56;;;;;;;2.63;1.23;;;;;;;9.59;100.00;96117.53;1030718;28;20087;-72
2023/08/08 00:56:26;;;;;;;1.27;1.17;;;;;;;9.52;100.00;96101.19;1026793;28;20034;-73
2023/08/08 00:56:57;;;;;;;2.47;1.10;;;;;;;9.55;100.00;96105.94;1030362;28;20062;-74
2023/08/08 00:57:27;;;;;;;1.35;1.17;;;;;;;9.59;100.00;96109.69;1014984;29;20047;-72
2023/08/08 00:57:58;;;;;;;2.63;1.40;;;;;;;9.53;100.00;96108.03;1022836;28;20375;-73
2023/08/08 00:58:29;;;;;;;1.73;1.10;;;;;;;9.59;100.00;96107.06;1030632;28;20018;-73
2023/08/08 00:58:59;;;;;;;2.75;1.20;;;;;;;9.51;100.00;96097.00;1029710;28;20473;-75
2023/08/08 00:59:29;;;;;;;2.38;1.60;;;;;;;9.57;100.00;96103.09;1026849;28;20168;-74
2023/08/08 01:00:00;;;;;;;2.45;1.30;;;;;;;9.56;100.00;96114.63;1026944;28;20047;-72
2023/08/08 01:00:30;;;;;;;1.48;1.35;;;;;;;9.59;100.00;96120.16;1030000;28;20112;-73
2023/08/08 01:01:01;;;;;;;1.85;1.20;;;;;;;9.59;100.00;96109.69;1034909;28;20021;-73
2023/08/08 01:01:31;;;;;;;1.55;1.17;;;;;;;9.59;100.00;96107.06;1038944;28;20472;-74
2023/08/08 01:02:02;;;;;;;4.05;1.50;;;;;;;9.58;100.00;96108.06;1038477;28;20037;-73
2023/08/08 01:02:32;;;;;;;1.80;1.63;;;;;;;9.55;100.00;96108.56;1034692;28;20030;-74
2023/08/08 01:03:03;;;;;;;2.28;1.30;;;;;;;9.56;100.00;96107.56;1034877;28;20037;-73
2023/08/08 01:03:33;;;;;;;1.40;1.10;;;;;;;9.55;100.00;96111.19;1034743;28;20046;-74
2023/08/08 01:04:06;;;;;;;2.30;1.05;;;;;;;9.49;100.00;96096.47;1030584;28;20109;-72
2023/08/08 01:04:37;;;;;;;4.07;1.10;;;;;;;9.50;100.00;96103.28;1026942;28;20026;-71
2023/08/08 01:05:07;;;;;;;1.35;1.15;;;;;;;9.52;100.00;96106.44;1030662;28;20604;-73
2023/08/08 01:05:43;;;;;;;1.58;1.02;;;;;;;9.46;100.00;96102.22;1032610;28;20046;-72
2023/08/08 01:06:32;;;;;;;2.45;1.20;;;;;;;9.50;100.00;96107.75;1030860;28;20711;-73
2023/08/08 01:07:28;;;;;;;4.88;1.50;;;;;;;9.49;100.00;96106.97;1018787;29;20290;-73
2023/08/08 01:08:05;;;;;;;2.15;1.30;;;;;;;9.47;100.00;96103.78;1024392;28;20259;-73
2023/08/08 01:08:48;;;;;;;1.65;1.10;;;;;;;9.44;100.00;96088.56;1022790;29;20275;-73
2023/08/08 01:09:26;;;;;;;2.22;1.10;;;;;;;9.49;100.00;96101.72;1018712;29;20275;-73
2023/08/08 01:10:17;;;;;;;1.98;0.93;;;;;;;9.46;100.00;96094.34;1026637;28;20270;-73
2023/08/08 01:10:48;;;;;;;;;;;;;;;9.46;100.00;96096.97;1022668;29;20275;-72
2023/08/08 01:11:18;;;;;;;1.85;1.15;;;;;;;9.44;100.00;96096.41;1018686;29;19919;-72
2023/08/08 01:11:49;;;;;;;2.45;1.25;;;;;;;9.45;100.00;96092.75;1030735;28;20140;-74
2023/08/08 01:12:20;;;;;;;1.13;1.02;;;;;;;9.43;100.00;96098.25;1026808;28;20046;-74
2023/08/08 01:12:52;;;;;;;1.88;1.20;;;;;;;9.44;100.00;96094.59;1030721;28;20307;-73
2023/08/08 01:13:23;;;;;;;5.43;1.02;;;;;;;9.42;100.00;96094.06;1030687;28;20034;-74
2023/08/08 01:13:54;;;;;;;2.13;1.38;;;;;;;9.45;100.00;96101.41;1026829;28;21035;-71
2023/08/08 01:14:24;;;;;;;1.40;1.13;;;;;;;9.45;100.00;96100.59;1022524;29;20405;-72
2023/08/08 01:14:55;;;;;;;2.08;1.33;;;;;;;9.43;100.00;96089.59;1022864;29;20035;-73
2023/08/08 01:15:25;;;;;;;2.42;1.30;;;;;;;9.47;100.00;96097.75;1018744;29;20031;-74
2023/08/08 01:15:56;;;;;;;1.23;0.95;;;;;;;9.45;100.00;96090.13;1019144;28;20043;-74
2023/08/08 01:16:26;;;;;;;1.92;1.00;;;;;;;9.43;100.00;96094.84;1030774;28;20022;-73
2023/08/08 01:16:57;;;;;;;2.22;1.20;;;;;;;9.47;100.00;96093.31;1030833;28;20026;-73
2023/08/08 01:17:28;;;;;;;2.15;1.05;;;;;;;9.43;100.00;96086.97;1026588;28;20404;-73
2023/08/08 01:17:58;;;;;;;4.20;1.35;;;;;;;9.49;100.00;96093.03;1030829;28;20022;-73
2023/08/08 01:18:29;;;;;;;1.70;1.15;;;;;;;9.50;100.00;96086.78;1026771;28;20366;-72
2023/08/08 01:18:59;;;;;;;2.20;1.17;;;;;;;9.49;100.00;96088.63;1026839;28;20096;-73
2023/08/08 01:19:30;;;;;;;2.75;1.55;;;;;;;9.52;100.00;96090.72;1026532;28;20027;-72
2023/08/08 01:20:03;;;;;;;2.28;0.90;;;;;;;9.52;100.00;96089.94;1030876;28;20041;-74
2023/08/08 01:20:34;;;;;;;1.65;1.10;;;;;;;9.51;100.00;96083.13;1030171;28;20954;-74
2023/08/08 01:21:04;;;;;;;2.50;1.30;;;;;;;9.52;100.00;96090.72;1026581;28;20294;-71
2023/08/08 01:21:35;;;;;;;1.00;0.90;;;;;;;9.52;100.00;96090.72;1026506;28;20630;-77
2023/08/08 01:22:09;;;;;;;1.20;1.10;;;;;;;9.45;100.00;96075.19;1034685;28;20030;-71
2023/08/08 01:23:00;;;;;;;1.52;1.15;;;;;;;9.53;100.00;96086.31;1026768;28;20030;-74
2023/08/08 01:23:35;;;;;;;1.17;1.08;;;;;;;9.52;100.00;96089.94;1022589;29;20273;-72
2023/08/08 01:24:18;;;;;;;2.90;1.10;;;;;;;9.52;100.00;96089.94;1026735;28;20110;-71
2023/08/08 01:24:49;;;;;;;1.45;0.93;;;;;;;9.51;100.00;96085.75;1033838;28;20267;-72
2023/08/08 01:25:19;;;;;;;2.28;1.10;;;;;;;9.52;100.00;96082.88;1030092;28;20295;-72
2023/08/08 01:25:50;;;;;;;1.00;0.80;;;;;;;9.50;100.00;96090.19;1022708;28;20035;-72
2023/08/08 01:26:20;;;;;;;1.40;1.10;;;;;;;9.48;100.00;96078.38;1026272;28;20404;-72
2023/08/08 01:26:51;;;;;;;1.52;1.10;;;;;;;9.45;100.00;96077.81;1026723;28;20026;-72
2023/08/08 01:27:22;;;;;;;1.70;0.98;;;;;;;9.52;100.00;96080.25;1022642;29;20031;-72
2023/08/08 01:27:52;;;;;;;1.15;1.00;;;;;;;9.47;100.00;96072.34;1026539;28;20134;-74
2023/08/08 01:28:23;;;;;;;1.50;0.98;;;;;;;9.52;100.00;96084.69;1026654;28;20406;-72
2023/08/08 01:28:54;;;;;;;3.20;1.20;;;;;;;9.51;100.00;96083.91;1030827;28;20125;-74
2023/08/08 01:29:24;;;;;;;3.40;0.98;;;;;;;9.44;100.00;96071.00;1030658;28;20030;-71
2023/08/08 01:29:55;;;;;;;1.30;1.17;;;;;;;9.47;100.00;96077.59;1030721;28;20269;-72
2023/08/08 01:30:25;;;;;;;2.60;1.10;;;;;;;9.49;100.00;96077.34;1034056;28;20026;-72
2023/08/08 01:30:56;;;;;;;1.33;0.90;;;;;;;9.52;100.00;96082.06;1026541;28;20031;-71
2023/08/08 01:31:26;;;;;;;4.32;1.42;;;;;;;9.53;100.00;96083.69;1026562;28;20398;-72
2023/08/08 01:31:57;;;;;;;3.13;0.90;;;;;;;9.53;100.00;96081.84;1026571;28;20027;-72
2023/08/08 01:32:27;;;;;;;1.40;1.23;;;;;;;9.56;100.00;96085.81;1026975;28;20085;-74
2023/08/08 01:32:57;;;;;;;1.55;1.05;;;;;;;9.56;100.00;96083.97;1030656;28;20668;-74
2023/08/08 01:33:28;;;;;;;1.55;1.10;;;;;;;9.55;100.00;96084.22;1026473;28;20085;-73
2023/08/08 01:33:58;;;;;;;2.63;1.08;;;;;;;9.54;100.00;96083.41;1022627;29;20038;-73
2023/08/08 01:34:29;;;;;;;2.58;1.10;;;;;;;9.52;100.00;96079.47;1022651;28;20592;-73
2023/08/08 01:34:59;;;;;;;1.60;1.10;;;;;;;9.48;100.00;96079.16;1028276;28;20398;-72
2023/08/08 01:35:32;;;;;;;1.58;1.00;;;;;;;9.52;100.00;96080.25;1030608;28;20037;-73
2023/08/08 01:36:06;;;;;;;0.80;0.80;;;;;;;9.54;100.00;96085.25;1022593;28;20866;-75
2023/08/08 01:36:57;;;;;;;1.25;1.05;;;;;;;9.53;100.00;96091.53;1019480;29;20338;-71
2023/08/08 01:37:33;;;;;;;1.35;1.00;;;;;;;9.50;100.00;96084.16;1021999;29;20255;-73
2023/08/08 01:38:08;;;;;;;1.50;1.08;;;;;;;9.50;100.00;96081.56;1026618;28;20117;-72
2023/08/08 01:38:41;;;;;;;1.00;0.90;;;;;;;9.52;100.00;96085.47;1022454;29;20266;-74
2023/08/08 01:39:14;;;;;;;2.25;1.00;;;;;;;9.53;100.00;96081.06;1026617;28;20352;-74
2023/08/08 01:39:44;;;;;;;2.08;1.20;;;;;;;9.50;100.00;96081.56;1022731;29;20271;-73
2023/08/08 01:40:18;;;;;;;2.45;1.20;;;;;;;9.49;100.00;96078.16;1021476;28;20274;-73
2023/08/08 01:40:49;;;;;;;2.15;1.13;;;;;;;9.52;100.00;96084.69;1022468;29;20109;-73
2023/08/08 01:41:19;;;;;;;2.08;0.98;;;;;;;9.46;100.00;96076.03;1022693;29;20274;-71
2023/08/08 01:41:50;;;;;;;1.45;1.00;;;;;;;9.52;100.00;96082.88;1024593;28;20026;-73
2023/08/08 01:42:21;;;;;;;1.02;0.93;;;;;;;9.53;100.00;96087.09;1022700;29;20019;-72
2023/08/08 01:42:51;;;;;;;1.30;0.93;;;;;;;9.51;100.00;96078.66;1022675;29;20062;-75
2023/08/08 01:43:22;;;;;;;1.98;1.17;;;;;;;9.47;100.00;96077.59;1026805;28;20337;-74
2023/08/08 01:43:52;;;;;;;1.20;1.10;;;;;;;9.50;100.00;96077.09;1026772;28;20030;-73
2023/08/08 01:44:24;;;;;;;5.38;0.82;;;;;;;9.51;100.00;96083.91;1022511;29;20026;-71
2023/08/08 01:44:55;;;;;;;3.47;1.10;;;;;;;9.48;100.00;96079.16;1022750;29;20440;-73
2023/08/08 01:45:26;;;;;;;1.52;1.08;;;;;;;9.50;100.00;96081.56;1022718;28;20259;-73
2023/08/08 01:45:56;;;;;;;2.33;1.20;;;;;;;9.48;100.00;96078.38;1023554;28;20049;-73
2023/08/08 01:46:27;;;;;;;0.93;0.90;;;;;;;9.47;100.00;96079.41;1022467;29;20163;-73
2023/08/08 01:46:57;;;;;;;2.55;1.08;;;;;;;9.36;100.00;96060.97;1018702;29;20075;-73
2023/08/08 01:47:28;;;;;;;4.10;1.08;;;;;;;9.44;100.00;96072.84;1022761;29;20023;-73
2023/08/08 01:47:58;;;;;;;1.73;1.10;;;;;;;9.37;100.00;96069.63;1023005;28;20023;-75
2023/08/08 01:48:29;;;;;;;1.60;1.02;;;;;;;9.45;100.00;96074.41;1023006;28;20022;-72
2023/08/08 01:48:59;;;;;;;1.95;0.93;;;;;;;9.43;100.00;96072.06;1030795;28;20033;-73
2023/08/08 01:49:30;;;;;;;6.28;1.10;;;;;;;9.43;100.00;96073.88;1030558;28;20057;-73
2023/08/08 01:50:00;;;;;;;3.20;1.58;;;;;;;9.43;100.00;96073.88;1030758;28;20027;-73
2023/08/08 01:50:31;;;;;;;2.10;1.10;;;;;;;9.40;100.00;96072.53;1025955;28;20026;-73
2023/08/08 01:51:01;;;;;;;1.85;1.02;;;;;;;9.40;100.00;96077.78;1030871;28;20393;-72
2023/08/08 01:51:31;;;;;;;1.27;0.98;;;;;;;9.40;100.00;96077.78;1034845;28;20080;-73
2023/08/08 01:52:02;;;;;;;2.88;1.23;;;;;;;9.40;100.00;96077.78;1034506;28;20093;-73
2023/08/08 01:52:33;;;;;;;1.00;0.90;;;;;;;9.42;100.00;96078.34;1030686;28;20038;-73
2023/08/08 01:53:03;;;;;;;3.13;1.17;;;;;;;9.43;100.00;96077.28;1026499;28;20023;-72
2023/08/08 01:53:34;;;;;;;0.90;0.90;;;;;;;9.43;100.00;96071.28;1022576;29;20032;-73
2023/08/08 01:54:04;;;;;;;3.42;1.20;;;;;;;9.44;100.00;96072.84;1022533;29;20043;-74
2023/08/08 01:54:35;;;;;;;1.30;1.20;;;;;;;9.48;100.00;96081.00;1022404;29;20032;-72
2023/08/08 01:55:06;;;;;;;0.88;0.88;;;;;;;9.49;100.00;96079.94;1022393;29;20027;-73
2023/08/08 01:55:37;;;;;;;2.63;1.20;;;;;;;9.49;100.00;96078.16;1025944;28;20117;-74
2023/08/08 01:56:08;;;;;;;1.63;1.10;;;;;;;9.41;100.00;96063.66;1029955;28;20562;-75
2023/08/08 01:56:38;;;;;;;2.00;1.30;;;;;;;9.49;100.00;96070.28;1030828;28;20277;-74
2023/08/08 01:57:09;;;;;;;1.27;1.00;;;;;;;9.51;100.00;96072.66;1028304;28;20050;-72
2023/08/08 01:57:39;;;;;;;2.65;1.30;;;;;;;9.51;100.00;96070.81;1026847;28;20520;-73
2023/08/08 01:58:10;;;;;;;2.53;1.00;;;;;;;9.51;100.00;96073.44;1030625;28;20841;-73
2023/08/08 01:58:40;;;;;;;1.10;1.00;;;;;;;9.51;100.00;96073.44;1026505;28;20031;-73
2023/08/08 01:59:11;;;;;;;2.95;1.20;;;;;;;9.49;100.00;96059.00;1026420;28;20062;-73
2023/08/08 01:59:41;;;;;;;1.25;1.05;;;;;;;9.53;100.00;96071.38;1018765;29;20410;-72
2023/08/08 02:00:12;;;;;;;2.42;1.10;;;;;;;9.51;100.00;96056.94;1018467;29;20032;-72
2023/08/08 02:00:43;;;;;;;1.48;1.10;;;;;;;9.51;100.00;96055.09;1021763;29;20031;-71
2023/08/08 02:01:14;;;;;;;2.72;1.17;;;;;;;9.57;100.00;96067.22;1018386;29;20032;-73
2023/08/08 02:01:44;;;;;;;1.88;1.15;;;;;;;9.52;100.00;96058.50;1018779;29;20263;-73
2023/08/08 02:02:17;;;;;;;3.20;1.05;;;;;;;9.52;100.00;96058.50;1018374;29;20027;-73
2023/08/08 02:02:47;;;;;;;1.55;1.00;;;;;;;9.60;100.00;96061.47;1019386;28;20561;-74
2023/08/08 02:03:18;;;;;;;1.27;1.10;;;;;;;9.60;100.00;96061.47;1026510;28;20336;-72
2023/08/08 02:03:48;;;;;;;2.30;1.70;;;;;;;9.61;100.00;96057.81;1019558;28;20039;-73
2023/08/08 02:04:20;;;;;;;2.17;1.15;;;;;;;9.63;100.00;96060.19;1026865;28;20481;-72
2023/08/08 02:04:50;;;;;;;1.33;0.90;;;;;;;9.56;100.00;96049.91;1030482;28;20026;-73
2023/08/08 02:05:20;;;;;;;2.17;1.10;;;;;;;9.65;100.00;96064.13;1030813;28;20301;-72
2023/08/08 02:05:51;;;;;;;0.80;0.80;;;;;;;9.64;100.00;96054.69;1038453;28;20029;-74
2023/08/08 02:06:21;;;;;;;1.67;1.17;;;;;;;9.69;100.00;96059.19;1034626;28;20100;-72
2023/08/08 02:06:52;;;;;;;1.23;1.13;;;;;;;9.71;100.00;96053.72;1034608;28;20026;-72
2023/08/08 02:07:22;;;;;;;0.95;0.90;;;;;;;9.61;100.00;96042.09;1034360;28;20037;-72
2023/08/08 02:07:53;;;;;;;0.98;0.80;;;;;;;9.71;100.00;96061.56;1030620;28;20045;-73
2023/08/08 02:08:23;;;;;;;3.03;0.95;;;;;;;9.76;100.00;96064.22;1034640;28;20527;-72
2023/08/08 02:08:54;;;;;;;1.85;1.13;;;;;;;9.76;100.00;96053.75;1035285;28;20512;-74
2023/08/08 02:09:24;;;;;;;3.88;1.20;;;;;;;9.80;100.00;96065.31;1033288;28;20061;-72
2023/08/08 02:09:55;;;;;;;1.00;0.80;;;;;;;9.79;100.00;96056.69;1030590;28;20512;-72
2023/08/08 02:10:25;;;;;;;3.17;1.42;;;;;;;9.80;100.00;96055.63;1038109;28;20072;-72
2023/08/08 02:10:56;;;;;;;2.28;1.33;;;;;;;9.80;100.00;96060.88;1038793;28;20029;-74
2023/08/08 02:11:26;;;;;;;1.00;0.80;;;;;;;9.80;100.00;96060.09;1034406;28;20041;-72
2023/08/08 02:11:56;;;;;;;0.82;0.82;;;;;;;9.75;100.00;96052.94;1034675;28;20570;-72
2023/08/08 02:12:28;;;;;;;2.60;0.85;;;;;;;9.80;100.00;96058.25;1034688;28;20033;-73
2023/08/08 02:12:59;;;;;;;1.23;0.93;;;;;;;9.81;100.00;96057.19;1032390;28;20022;-73
2023/08/08 02:13:30;;;;;;;3.00;1.10;;;;;;;9.77;100.00;96056.13;1034532;28;20731;-72
2023/08/08 02:14:00;;;;;;;1.05;0.90;;;;;;;9.78;100.00;96052.47;1026529;28;20035;-73
2023/08/08 02:14:31;;;;;;;1.77;1.13;;;;;;;9.82;100.00;96058.00;1023298;28;20262;-74
2023/08/08 02:15:01;;;;;;;5.25;1.15;;;;;;;9.82;100.00;96058.78;1030473;28;20026;-73
2023/08/08 02:15:32;;;;;;;1.73;0.98;;;;;;;9.82;100.00;96064.00;1030444;28;20034;-72
2023/08/08 02:16:02;;;;;;;2.33;0.90;;;;;;;9.78;100.00;96049.06;1026592;28;20489;-72
2023/08/08 02:16:32;;;;;;;3.03;1.10;;;;;;;9.75;100.00;96047.72;1026648;28;20027;-72
2023/08/08 02:17:03;;;;;;;1.25;0.90;;;;;;;9.83;100.00;96062.22;1022493;28;20024;-72
2023/08/08 02:17:34;;;;;;;0.95;0.80;;;;;;;9.79;100.00;96059.31;1022559;29;20058;-73
2023/08/08 02:18:04;;;;;;;1.17;0.98;;;;;;;9.84;100.00;96061.16;1024582;28;20023;-74
2023/08/08 02:18:40;;;;;;;0.98;0.85;;;;;;;9.83;100.00;96067.44;1026871;28;20038;-73
2023/08/08 02:19:10;;;;;;;2.25;1.10;;;;;;;9.82;100.00;96065.84;1034603;28;20442;-74
2023/08/08 02:19:41;;;;;;;4.20;1.20;;;;;;;9.81;100.00;96061.66;1036038;28;20277;-73
2023/08/08 02:20:12;;;;;;;1.17;1.08;;;;;;;9.76;100.00;96049.31;1038569;28;20025;-71
2023/08/08 02:20:42;;;;;;;1.45;1.10;;;;;;;9.82;100.00;96063.22;1038062;28;20403;-72
2023/08/08 02:21:12;;;;;;;2.53;0.90;;;;;;;9.84;100.00;96055.91;1034634;28;20073;-73
2023/08/08 02:21:43;;;;;;;2.47;1.20;;;;;;;9.84;100.00;96061.16;1030454;28;20023;-72
2023/08/08 02:22:13;;;;;;;1.60;1.13;;;;;;;9.74;100.00;96043.53;1026467;28;20456;-72
2023/08/08 02:22:44;;;;;;;1.60;1.08;;;;;;;9.78;100.00;96051.66;1023189;28;20034;-72
2023/08/08 02:23:14;;;;;;;2.78;0.80;;;;;;;9.80;100.00;96054.84;1025996;28;20484;-73
2023/08/08 02:23:45;;;;;;;1.45;1.08;;;;;;;9.82;100.00;96058.00;1026023;28;20058;-72
2023/08/08 02:24:15;;;;;;;1.40;1.10;;;;;;;9.84;100.00;96055.91;1027133;28;20015;-73
2023/08/08 02:24:46;;;;;;;3.00;1.08;;;;;;;9.82;100.00;96050.13;1027011;28;20105;-72
2023/08/08 02:25:16;;;;;;;1.77;0.90;;;;;;;9.83;100.00;96049.91;1026913;28;20030;-73
2023/08/08 02:25:47;;;;;;;2.10;0.90;;;;;;;9.84;100.00;96050.69;1026631;28;20544;-74
2023/08/08 02:26:17;;;;;;;1.55;0.90;;;;;;;9.75;100.00;96044.31;1026251;28;20031;-72
2023/08/08 02:26:48;;;;;;;1.95;0.80;;;;;;;9.82;100.00;96056.16;1034658;28;20017;-74